createdAt,value
2022-10-05T00:00:52.066Z,75.43
2022-10-05T00:03:28.589Z,75.42
2022-10-05T00:06:01.714Z,75.23
2022-10-05T00:08:36.322Z,75.47
2022-10-05T00:11:10.415Z,75.39
2022-10-05T00:13:43.547Z,75.46
2022-10-05T00:16:19.305Z,75.32
2022-10-05T00:18:55.047Z,75.12
2022-10-05T00:21:30.055Z,75.49
2022-10-05T00:24:03.024Z,75.25
2022-10-05T00:26:35.870Z,75.46
2022-10-05T00:29:20.748Z,75.47
2022-10-05T00:31:53.691Z,75.16
2022-10-05T00:34:27.876Z,75.00
2022-10-05T00:37:00.867Z,75.04
2022-10-05T00:39:34.564Z,75.16
2022-10-05T00:42:19.800Z,74.81
2022-10-05T00:44:58.467Z,75.48
2022-10-05T00:47:37.664Z,75.34
2022-10-05T00:50:49.638Z,75.16
2022-10-05T00:53:34.964Z,74.71
2022-10-05T00:56:23.235Z,74.98
2022-10-05T00:59:09.917Z,74.82
2022-10-05T01:01:49.109Z,75.36
2022-10-05T01:04:27.912Z,75.23
2022-10-05T01:07:11.797Z,75.14
2022-10-05T01:09:53.766Z,75.41
2022-10-05T01:12:31.344Z,75.22
2022-10-05T01:15:09.830Z,75.30
2022-10-05T01:17:49.242Z,74.83
2022-10-05T01:20:35.508Z,75.26
2022-10-05T01:23:58.772Z,75.03
2022-10-05T01:27:03.000Z,75.29
2022-10-05T01:29:43.770Z,75.27
2022-10-05T01:32:24.191Z,75.62
2022-10-05T01:35:07.114Z,75.14
2022-10-05T01:37:49.078Z,75.31
2022-10-05T01:40:27.973Z,75.33
2022-10-05T01:43:09.736Z,74.96
2022-10-05T01:45:57.356Z,74.91
2022-10-05T01:48:43.747Z,75.52
2022-10-05T01:51:28.619Z,74.94
2022-10-05T01:54:10.982Z,75.53
2022-10-05T01:56:50.967Z,74.96
2022-10-05T01:59:34.171Z,75.37
2022-10-05T02:02:13.129Z,75.38
2022-10-05T02:05:01.938Z,75.11
2022-10-05T02:07:40.957Z,75.41
2022-10-05T02:10:22.161Z,75.68
2022-10-05T02:12:59.912Z,75.45
2022-10-05T02:15:39.649Z,75.70
2022-10-05T02:18:20.973Z,75.54
2022-10-05T02:20:57.835Z,75.38
2022-10-05T02:23:34.744Z,75.58
2022-10-05T02:26:09.904Z,75.58
2022-10-05T02:28:48.685Z,75.15
2022-10-05T02:31:26.755Z,75.06
2022-10-05T02:34:26.047Z,75.25
2022-10-05T02:37:15.853Z,75.00
2022-10-05T02:40:03.712Z,75.03
2022-10-05T02:42:47.344Z,75.18
2022-10-05T02:45:28.723Z,75.15
2022-10-05T02:48:12.016Z,75.24
2022-10-05T02:50:54.153Z,75.16
2022-10-05T02:53:34.759Z,75.29
2022-10-05T02:56:17.240Z,74.97
2022-10-05T02:58:57.678Z,75.14
2022-10-05T03:01:36.993Z,74.98
2022-10-05T03:04:25.846Z,74.92
2022-10-05T03:07:09.562Z,74.96
2022-10-05T03:09:47.214Z,74.96
2022-10-05T03:12:35.302Z,74.75
2022-10-05T03:15:21.413Z,74.67
2022-10-05T03:18:01.414Z,74.47
2022-10-05T03:20:43.855Z,74.47
2022-10-05T03:23:27.638Z,74.73
2022-10-05T03:26:13.104Z,74.73
2022-10-05T03:28:58.788Z,74.81
2022-10-05T03:31:37.764Z,74.72
2022-10-05T03:34:16.542Z,74.82
2022-10-05T03:36:57.342Z,74.74
2022-10-05T03:39:37.872Z,74.57
2022-10-05T03:42:25.053Z,74.77
2022-10-05T03:45:06.757Z,74.65
2022-10-05T03:47:47.755Z,74.62
2022-10-05T03:50:32.677Z,74.72
2022-10-05T03:53:10.486Z,74.69
2022-10-05T03:55:49.328Z,74.78
2022-10-05T03:58:29.210Z,74.49
2022-10-05T04:01:06.909Z,74.55
2022-10-05T04:03:45.780Z,75.12
2022-10-05T04:06:24.311Z,74.81
2022-10-05T04:09:01.628Z,75.08
2022-10-05T04:11:40.851Z,75.13
2022-10-05T04:14:16.955Z,75.03
2022-10-05T04:16:55.974Z,75.18
2022-10-05T04:19:34.935Z,75.14
2022-10-05T04:22:13.471Z,75.11
2022-10-05T04:24:50.612Z,75.15
2022-10-05T04:27:31.837Z,75.07
2022-10-05T04:30:09.190Z,74.82
2022-10-05T04:32:44.868Z,74.96
2022-10-05T04:35:31.442Z,74.91
2022-10-05T04:38:17.754Z,75.10
2022-10-05T04:41:06.110Z,75.03
2022-10-05T04:43:52.069Z,75.14
2022-10-05T04:46:39.772Z,75.13
2022-10-05T04:49:33.064Z,74.58
2022-10-05T04:52:16.069Z,75.01
2022-10-05T04:55:03.505Z,74.83
2022-10-05T04:57:42.608Z,74.72
2022-10-05T05:00:23.985Z,75.12
2022-10-05T05:03:27.003Z,74.77
2022-10-05T05:06:17.442Z,75.03
2022-10-05T05:09:10.080Z,75.14
2022-10-05T05:11:56.259Z,75.53
2022-10-05T05:15:02.006Z,75.47
2022-10-05T05:17:55.597Z,75.49
2022-10-05T05:20:42.713Z,75.39
2022-10-05T05:23:25.215Z,75.51
2022-10-05T05:26:10.257Z,75.31
2022-10-05T05:28:53.291Z,75.34
2022-10-05T05:31:35.719Z,75.56
2022-10-05T05:34:28.305Z,75.69
2022-10-05T05:37:09.161Z,75.91
2022-10-05T05:39:50.597Z,75.89
2022-10-05T05:42:37.348Z,76.25
2022-10-05T05:45:18.057Z,76.50
2022-10-05T05:47:55.104Z,76.56
2022-10-05T05:50:49.238Z,76.67
2022-10-05T05:53:26.656Z,76.51
2022-10-05T05:56:05.902Z,76.99
2022-10-05T05:58:46.827Z,77.11
2022-10-05T06:01:33.306Z,77.43
2022-10-05T06:04:13.365Z,77.21
2022-10-05T06:06:51.343Z,76.97
2022-10-05T06:09:29.998Z,77.24
2022-10-05T06:12:10.101Z,77.13
2022-10-05T06:14:49.786Z,77.28
2022-10-05T06:17:29.062Z,77.13
2022-10-05T06:20:05.588Z,77.58
2022-10-05T06:22:44.571Z,78.04
2022-10-05T06:25:28.784Z,78.17
2022-10-05T06:28:11.200Z,78.61
2022-10-05T06:30:53.069Z,78.89
2022-10-05T06:33:46.899Z,79.07
2022-10-05T06:36:33.670Z,79.31
2022-10-05T06:39:38.218Z,79.52
2022-10-05T06:42:31.756Z,79.62
2022-10-05T06:45:12.837Z,79.54
2022-10-05T06:47:52.272Z,79.71
2022-10-05T06:50:36.946Z,79.40
2022-10-05T06:53:26.079Z,79.57
2022-10-05T06:56:08.704Z,79.67
2022-10-05T06:58:54.677Z,80.20
2022-10-05T07:01:37.394Z,80.21
2022-10-05T07:04:36.954Z,80.09
2022-10-05T07:07:18.237Z,80.49
2022-10-05T07:10:05.295Z,80.91
2022-10-05T07:12:51.541Z,80.04
2022-10-05T07:15:36.926Z,80.26
2022-10-05T07:18:25.460Z,80.05
2022-10-05T07:21:05.877Z,80.04
2022-10-05T07:23:53.230Z,79.58
2022-10-05T07:26:32.126Z,79.95
2022-10-05T07:29:22.643Z,79.40
2022-10-05T07:32:07.894Z,79.24
2022-10-05T07:34:51.329Z,78.57
2022-10-05T07:37:51.356Z,79.21
2022-10-05T07:40:29.887Z,78.70
2022-10-05T07:43:15.774Z,78.67
2022-10-05T07:45:58.314Z,78.07
2022-10-05T07:48:39.175Z,77.98
2022-10-05T07:51:24.396Z,78.38
2022-10-05T07:54:07.645Z,77.93
2022-10-05T07:56:43.489Z,78.09
2022-10-05T07:59:27.108Z,78.11
2022-10-05T08:02:14.187Z,77.91
2022-10-05T08:04:56.745Z,77.47
2022-10-05T08:07:33.688Z,77.82
2022-10-05T08:10:19.590Z,77.57
2022-10-05T08:13:01.448Z,77.56
2022-10-05T08:15:35.921Z,78.14
2022-10-05T08:18:19.204Z,76.37
2022-10-05T08:20:57.005Z,76.07
2022-10-05T08:23:38.998Z,75.93
2022-10-05T08:26:22.732Z,75.53
2022-10-05T08:29:09.170Z,75.76
2022-10-05T08:31:49.851Z,75.31
2022-10-05T08:34:29.689Z,74.75
2022-10-05T08:37:07.059Z,75.12
2022-10-05T08:39:42.645Z,74.53
2022-10-05T08:43:02.423Z,74.37
2022-10-05T08:45:57.081Z,74.18
2022-10-05T08:49:06.144Z,74.84
2022-10-05T08:51:55.347Z,74.28
2022-10-05T08:55:01.798Z,74.39
2022-10-05T08:58:04.746Z,74.26
2022-10-05T09:00:49.626Z,74.33
2022-10-05T09:03:51.902Z,73.85
2022-10-05T09:07:03.304Z,73.84
2022-10-05T09:10:01.415Z,73.92
2022-10-05T09:12:51.337Z,74.20
2022-10-05T09:15:38.436Z,74.29
2022-10-05T09:18:43.084Z,74.35
2022-10-05T09:21:33.262Z,74.64
2022-10-05T09:24:21.087Z,74.31
2022-10-05T09:27:09.781Z,74.21
2022-10-05T09:30:23.386Z,74.08
2022-10-05T09:33:34.934Z,74.81
2022-10-05T09:36:41.854Z,74.47
2022-10-05T09:39:44.252Z,74.17
2022-10-05T09:42:39.786Z,74.59
2022-10-05T09:45:41.624Z,74.47
2022-10-05T09:48:52.858Z,74.52
2022-10-05T09:52:00.555Z,73.99
2022-10-05T09:55:19.612Z,73.28
2022-10-05T09:58:41.081Z,74.10
2022-10-05T10:01:33.515Z,74.20
2022-10-05T10:04:38.197Z,73.72
2022-10-05T10:07:37.552Z,74.49
2022-10-05T10:10:54.820Z,75.03
2022-10-05T10:13:53.990Z,75.32
2022-10-05T10:16:54.678Z,75.03
2022-10-05T10:20:08.711Z,74.68
2022-10-05T10:23:09.243Z,75.17
2022-10-05T10:26:18.966Z,75.66
2022-10-05T10:29:34.809Z,75.91
2022-10-05T10:32:28.711Z,75.82
2022-10-05T10:35:19.059Z,75.24
2022-10-05T10:38:33.779Z,75.65
2022-10-05T10:41:51.003Z,75.37
2022-10-05T10:44:52.435Z,75.81
2022-10-05T10:47:59.874Z,75.99
2022-10-05T10:51:00.268Z,76.67
2022-10-05T10:53:49.502Z,76.87
2022-10-05T10:56:40.535Z,75.82
2022-10-05T10:59:48.107Z,76.41
2022-10-05T11:02:49.715Z,76.27
2022-10-05T11:05:55.923Z,75.49
2022-10-05T11:08:59.868Z,75.35
2022-10-05T11:12:11.108Z,75.58
2022-10-05T11:15:00.871Z,75.97
2022-10-05T11:18:06.505Z,76.25
2022-10-05T11:21:05.901Z,75.72
2022-10-05T11:24:25.323Z,75.76
2022-10-05T11:30:13.223Z,75.56
2022-10-05T11:33:11.918Z,75.46
2022-10-05T11:35:59.673Z,74.52
2022-10-05T11:39:02.168Z,74.61
2022-10-05T11:41:54.259Z,74.38
2022-10-05T11:44:59.706Z,74.01
2022-10-05T11:47:38.487Z,73.34
2022-10-05T11:50:22.247Z,72.78
2022-10-05T11:53:00.933Z,72.39
2022-10-05T11:55:40.466Z,72.70
2022-10-05T11:58:19.743Z,71.99
2022-10-05T12:01:01.793Z,72.00
2022-10-05T12:03:53.295Z,72.95
2022-10-05T12:06:48.742Z,72.42
2022-10-05T12:09:35.474Z,71.38
2022-10-05T12:12:16.812Z,71.34
2022-10-05T12:14:56.340Z,70.55
2022-10-05T12:17:38.065Z,69.90
2022-10-05T12:20:16.717Z,75.91
2022-10-05T12:22:58.926Z,70.46
2022-10-05T12:25:36.052Z,70.71
2022-10-05T12:28:13.315Z,69.35
2022-10-05T12:31:10.448Z,69.99
2022-10-05T12:33:51.107Z,69.72
2022-10-05T12:36:52.499Z,69.83
2022-10-05T12:39:40.656Z,69.94
2022-10-05T12:42:27.136Z,70.06
2022-10-05T12:45:27.784Z,70.46
2022-10-05T12:48:15.864Z,69.83
2022-10-05T12:50:51.167Z,69.26
2022-10-05T12:53:35.121Z,69.05
2022-10-05T12:56:17.731Z,69.31
2022-10-05T12:59:00.673Z,69.22
2022-10-05T13:01:41.676Z,69.28
2022-10-05T13:04:32.102Z,69.76
2022-10-05T13:07:26.126Z,69.30
2022-10-05T13:10:04.676Z,68.89
2022-10-05T13:12:49.798Z,68.78
2022-10-05T13:15:29.164Z,68.75
2022-10-05T13:18:14.942Z,68.92
2022-10-05T13:20:54.240Z,68.44
2022-10-05T13:23:42.280Z,68.20
2022-10-05T13:26:19.227Z,67.85
2022-10-05T13:29:03.824Z,68.72
2022-10-05T13:31:42.942Z,69.11
2022-10-05T13:34:28.019Z,68.70
2022-10-05T13:37:13.521Z,68.33
2022-10-05T13:39:58.666Z,68.10
2022-10-05T13:42:39.199Z,68.42
2022-10-05T13:45:20.790Z,67.73
2022-10-05T13:48:04.036Z,71.95
2022-10-05T13:50:44.112Z,68.68
2022-10-05T13:53:25.847Z,67.72
2022-10-05T13:56:01.068Z,67.35
2022-10-05T13:58:42.810Z,67.55
2022-10-05T14:01:23.449Z,67.52
2022-10-05T14:04:17.397Z,68.04
2022-10-05T14:06:50.442Z,68.28
2022-10-05T14:09:31.871Z,67.01
2022-10-05T14:12:14.690Z,67.60
2022-10-05T14:14:50.452Z,67.34
2022-10-05T14:17:38.995Z,67.53
2022-10-05T14:20:21.240Z,66.26
2022-10-05T14:22:58.333Z,65.92
2022-10-05T14:25:32.166Z,66.66
2022-10-05T14:28:24.804Z,65.82
2022-10-05T14:30:59.261Z,66.62
2022-10-05T14:33:36.079Z,66.38
2022-10-05T14:36:17.396Z,65.92
2022-10-05T14:38:57.831Z,65.83
2022-10-05T14:41:36.360Z,65.71
2022-10-05T14:44:30.467Z,66.50
2022-10-05T14:47:18.392Z,66.21
2022-10-05T14:50:16.388Z,65.81
2022-10-05T14:53:04.462Z,66.00
2022-10-05T14:55:55.755Z,65.69
2022-10-05T14:58:42.998Z,65.85
2022-10-05T15:01:26.357Z,65.90
2022-10-05T15:04:13.426Z,65.99
2022-10-05T15:06:57.624Z,65.77
2022-10-05T15:09:53.395Z,65.33
2022-10-05T15:12:32.417Z,65.94
2022-10-05T15:15:25.645Z,65.67
2022-10-05T15:18:02.820Z,64.72
2022-10-05T15:20:43.761Z,64.30
2022-10-05T15:23:25.799Z,65.18
2022-10-05T15:26:13.533Z,65.13
2022-10-05T15:28:54.772Z,64.85
2022-10-05T15:31:39.409Z,64.84
2022-10-05T15:34:19.220Z,64.15
2022-10-05T15:36:58.791Z,64.68
2022-10-05T15:39:41.603Z,64.42
2022-10-05T15:42:18.998Z,64.97
2022-10-05T15:45:00.431Z,64.69
2022-10-05T15:47:47.747Z,64.50
2022-10-05T15:50:25.958Z,64.64
2022-10-05T15:53:06.606Z,64.85
2022-10-05T15:55:52.325Z,64.82
2022-10-05T15:58:54.591Z,64.64
2022-10-05T16:01:42.274Z,65.17
2022-10-05T16:04:21.737Z,64.74
2022-10-05T16:07:17.718Z,64.94
2022-10-05T16:09:57.811Z,64.84
2022-10-05T16:12:40.969Z,65.06
2022-10-05T16:15:22.595Z,65.54
2022-10-05T16:18:09.188Z,65.28
2022-10-05T16:20:50.074Z,65.73
2022-10-05T16:23:32.802Z,65.67
2022-10-05T16:26:18.081Z,65.93
2022-10-05T16:29:01.420Z,66.77
2022-10-05T16:31:43.950Z,67.13
2022-10-05T16:34:31.122Z,67.15
2022-10-05T16:37:11.260Z,67.97
2022-10-05T16:39:56.451Z,67.55
2022-10-05T16:42:43.149Z,67.77
2022-10-05T16:45:49.468Z,67.97
2022-10-05T16:48:27.495Z,68.53
2022-10-05T16:51:17.463Z,68.26
2022-10-05T16:54:00.093Z,68.69
2022-10-05T16:56:39.799Z,69.08
2022-10-05T16:59:44.383Z,69.07
2022-10-05T17:02:31.206Z,69.32
2022-10-05T17:05:18.164Z,69.58
2022-10-05T17:08:18.184Z,69.63
2022-10-05T17:11:07.640Z,69.91
2022-10-05T17:13:58.289Z,70.24
2022-10-05T17:16:43.665Z,70.35
2022-10-05T17:19:41.439Z,70.50
2022-10-05T17:22:25.348Z,70.67
2022-10-05T17:25:10.889Z,70.90
2022-10-05T17:27:54.660Z,70.96
2022-10-05T17:30:50.442Z,71.33
2022-10-05T17:33:29.135Z,71.62
2022-10-05T17:36:21.345Z,71.63
2022-10-05T17:39:14.262Z,71.88
2022-10-05T17:41:49.908Z,72.53
2022-10-05T17:44:27.659Z,72.55
2022-10-05T17:47:01.474Z,72.70
2022-10-05T17:50:16.733Z,72.27
2022-10-05T17:53:38.983Z,72.30
2022-10-05T17:56:11.740Z,72.78
2022-10-05T17:59:03.460Z,72.72
2022-10-05T18:01:38.469Z,73.24
2022-10-05T18:04:34.667Z,72.92
2022-10-05T18:07:26.600Z,73.25
2022-10-05T18:10:17.489Z,73.02
2022-10-05T18:13:12.723Z,73.19
2022-10-05T18:15:48.773Z,73.59
2022-10-05T18:18:55.923Z,72.99
2022-10-05T18:22:03.537Z,73.35
2022-10-05T18:24:53.117Z,73.49
2022-10-05T18:27:42.477Z,73.73
2022-10-05T18:30:21.029Z,74.34
2022-10-05T18:33:41.711Z,74.00
2022-10-05T18:36:37.895Z,74.12
2022-10-05T18:39:22.714Z,74.51
2022-10-05T18:42:08.265Z,74.47
2022-10-05T18:44:44.615Z,74.49
2022-10-05T18:47:28.642Z,74.57
2022-10-05T18:50:14.102Z,74.87
2022-10-05T18:53:00.809Z,74.53
2022-10-05T18:55:39.157Z,74.95
2022-10-05T18:58:22.499Z,74.86
2022-10-05T19:01:26.957Z,74.84
2022-10-05T19:04:17.203Z,75.14
2022-10-05T19:06:58.497Z,75.25
2022-10-05T19:09:47.076Z,75.44
2022-10-05T19:12:30.406Z,75.26
2022-10-05T19:15:13.439Z,75.36
2022-10-05T19:18:06.024Z,75.52
2022-10-05T19:20:48.150Z,75.40
2022-10-05T19:23:34.577Z,75.59
2022-10-05T19:26:15.344Z,75.60
2022-10-05T19:29:03.017Z,75.66
2022-10-05T19:31:42.241Z,76.06
2022-10-05T19:34:29.431Z,75.83
2022-10-05T19:37:09.407Z,75.95
2022-10-05T19:40:02.553Z,75.59
2022-10-05T19:42:58.941Z,75.59
2022-10-05T19:45:37.602Z,75.66
2022-10-05T19:48:26.928Z,75.46
2022-10-05T19:51:01.979Z,75.87
2022-10-05T19:53:39.201Z,76.09
2022-10-05T19:56:20.383Z,76.35
2022-10-05T19:58:56.479Z,76.71
2022-10-05T20:01:34.140Z,76.81
2022-10-05T20:04:08.246Z,76.72
2022-10-05T20:06:42.278Z,76.92
2022-10-05T20:09:23.121Z,76.39
2022-10-05T20:11:56.647Z,76.92
2022-10-05T20:14:59.086Z,76.37
2022-10-05T20:17:49.840Z,76.24
2022-10-05T20:20:38.390Z,75.91
2022-10-05T20:23:25.833Z,75.61
2022-10-05T20:26:17.651Z,75.92
2022-10-05T20:28:51.012Z,75.88
2022-10-05T20:31:24.371Z,76.01
2022-10-05T20:33:57.504Z,76.12
2022-10-05T20:36:30.567Z,76.24
2022-10-05T20:39:03.477Z,76.60
2022-10-05T20:41:38.037Z,76.24
2022-10-05T20:44:11.078Z,76.13
2022-10-05T20:46:45.985Z,76.38
2022-10-05T20:49:19.248Z,76.38
2022-10-05T20:51:52.252Z,76.39
2022-10-05T20:54:26.188Z,76.33
2022-10-05T20:57:00.445Z,76.29
2022-10-05T20:59:34.534Z,76.33
2022-10-05T21:02:07.611Z,76.55
2022-10-05T21:04:41.619Z,76.51
2022-10-05T21:07:15.937Z,76.49
2022-10-05T21:09:48.847Z,76.42
2022-10-05T21:12:23.452Z,76.16
2022-10-05T21:14:56.285Z,76.26
2022-10-05T21:17:29.158Z,76.22
2022-10-05T21:20:01.940Z,76.20
2022-10-05T21:22:36.375Z,76.24
2022-10-05T21:25:09.982Z,76.19
2022-10-05T21:27:44.401Z,75.86
2022-10-05T21:30:17.383Z,75.89
2022-10-05T21:32:50.320Z,75.55
2022-10-05T21:35:23.327Z,75.96
2022-10-05T21:37:56.293Z,75.64
2022-10-05T21:40:29.099Z,75.54
2022-10-05T21:43:03.495Z,75.65
2022-10-05T21:45:36.568Z,75.71
2022-10-05T21:48:09.814Z,75.41
2022-10-05T21:50:43.306Z,75.46
2022-10-05T21:53:19.992Z,75.39
2022-10-05T21:55:53.570Z,75.49
2022-10-05T21:58:29.455Z,75.59
2022-10-05T22:01:03.205Z,75.45
2022-10-05T22:03:36.138Z,75.57
2022-10-05T22:06:09.297Z,75.54
2022-10-05T22:08:42.503Z,75.56
2022-10-05T22:11:18.360Z,75.37
2022-10-05T22:13:54.047Z,75.18
2022-10-05T22:16:29.426Z,75.24
2022-10-05T22:19:04.961Z,75.09
2022-10-05T22:21:41.748Z,75.29
2022-10-05T22:24:14.840Z,75.52
2022-10-05T22:26:51.465Z,75.37
2022-10-05T22:29:25.811Z,75.57
2022-10-05T22:31:58.656Z,75.37
2022-10-05T22:34:31.505Z,75.56
2022-10-05T22:37:06.128Z,75.59
2022-10-05T22:39:38.997Z,75.73
2022-10-05T22:42:11.913Z,75.65
2022-10-05T22:44:46.174Z,75.64
2022-10-05T22:47:18.976Z,75.77
2022-10-05T22:49:52.002Z,75.75
2022-10-05T22:52:24.836Z,75.75
2022-10-05T22:54:57.779Z,75.64
2022-10-05T22:57:38.662Z,75.48
2022-10-05T23:00:14.151Z,75.68
2022-10-05T23:02:47.011Z,75.58
2022-10-05T23:05:19.884Z,75.58
2022-10-05T23:07:52.891Z,75.49
2022-10-05T23:10:26.165Z,75.63
2022-10-05T23:13:01.030Z,75.39
2022-10-05T23:15:35.879Z,75.51
2022-10-05T23:18:08.723Z,75.50
2022-10-05T23:20:41.555Z,75.49
2022-10-05T23:23:14.372Z,75.29
2022-10-05T23:25:47.150Z,75.49
2022-10-05T23:28:20.412Z,75.06
2022-10-05T23:30:59.356Z,75.17
2022-10-05T23:33:32.567Z,75.11
2022-10-05T23:36:08.157Z,75.01
2022-10-05T23:38:41.027Z,74.89
2022-10-05T23:41:14.685Z,74.92
2022-10-05T23:43:47.799Z,74.93
2022-10-05T23:46:22.156Z,74.95
2022-10-05T23:48:55.073Z,75.22
2022-10-05T23:51:27.934Z,75.00
2022-10-05T23:54:00.807Z,75.24
2022-10-05T23:56:33.738Z,75.05
2022-10-05T23:59:06.606Z,75.20
